Time;durP1;ratioP1;P1;durP2;ratioP2;P2;SDS_P1;SDS_P2;PMS_P1;PMS_P2;Temp;Humidity;BMP_temperature;BMP_pressure;BME280_temperature;BME280_humidity;BME280_pressure;Samples;Min_cycle;Max_cycle;Signal;HPM_P1;HPM_P2
2021/08/23 00:02:17;;;;;;;7.78;5.97;;;;;;;15.61;75.22;97891.06;1701264;84;20996;-84
2021/08/23 00:04:44;;;;;;;8.45;6.28;;;;;;;15.59;75.38;97884.95;1701246;84;21028;-84
2021/08/23 00:07:11;;;;;;;8.80;6.12;;;;;;;15.59;75.62;97888.95;1700347;83;20976;-84
2021/08/23 00:09:38;;;;;;;7.65;6.00;;;;;;;15.58;76.22;97887.23;1686011;84;21031;-84
2021/08/23 00:12:05;;;;;;;8.08;5.85;;;;;;;15.54;75.70;97890.52;1706446;81;21472;-84
2021/08/23 00:14:32;;;;;;;8.43;6.10;;;;;;;15.48;75.67;97884.65;1737495;82;20992;-85
2021/08/23 00:16:58;;;;;;;8.63;5.92;;;;;;;15.43;75.91;97884.41;1699749;84;21064;-85
2021/08/23 00:19:25;;;;;;;8.83;6.17;;;;;;;15.42;75.74;97889.36;1728534;82;21031;-85
2021/08/23 00:22:00;;;;;;;8.38;5.83;;;;;;;15.40;76.05;97884.55;1735909;83;21015;-85
2021/08/23 00:24:23;;;;;;;7.92;6.45;;;;;;;15.39;77.88;97885.96;1755482;82;21355;-84
2021/08/23 00:26:56;;;;;;;8.13;6.05;;;;;;;15.40;76.49;97883.71;1734499;83;21011;-84
2021/08/23 00:29:25;;;;;;;8.08;6.40;;;;;;;15.37;76.46;97887.37;1710050;83;21039;-84
2021/08/23 00:31:53;;;;;;;8.48;5.75;;;;;;;15.34;76.32;97884.88;1703041;83;21629;-85
2021/08/23 00:34:20;;;;;;;7.03;5.60;;;;;;;15.33;76.43;97884.95;1680670;83;21016;-85
2021/08/23 00:36:46;;;;;;;9.73;5.87;;;;;;;15.30;77.27;97892.19;1691398;84;22396;-85
2021/08/23 00:39:14;;;;;;;7.40;5.42;;;;;;;15.30;77.57;97888.18;1725067;83;20991;-84
2021/08/23 00:41:42;;;;;;;6.12;5.53;;;;;;;15.29;76.48;97892.26;1726456;82;21040;-84
2021/08/23 00:44:09;;;;;;;9.35;6.03;;;;;;;15.28;76.61;97886.04;1724811;83;22035;-85
2021/08/23 00:46:36;;;;;;;8.98;5.60;;;;;;;15.27;76.80;97890.99;1724678;83;21079;-85
2021/08/23 00:49:05;;;;;;;9.30;5.78;;;;;;;15.28;77.33;97888.71;1724730;83;21063;-84
2021/08/23 00:51:32;;;;;;;7.00;5.35;;;;;;;15.29;77.31;97886.91;1701498;83;21001;-85
2021/08/23 00:53:59;;;;;;;7.47;5.08;;;;;;;15.31;77.95;97889.02;1724663;83;21017;-84
2021/08/23 00:56:25;;;;;;;9.03;5.55;;;;;;;15.32;77.78;97885.41;1699749;84;21473;-85
2021/08/23 00:58:54;;;;;;;6.15;5.28;;;;;;;15.32;78.04;97882.73;1725401;82;21032;-85
2021/08/23 01:01:48;;;;;;;7.90;5.37;;;;;;;15.30;78.35;97879.30;1700545;84;20986;-85
2021/08/23 01:04:23;;;;;;;7.30;4.83;;;;;;;15.27;78.18;97884.78;1716284;83;21007;-85
2021/08/23 01:06:50;;;;;;;10.40;5.83;;;;;;;15.27;78.66;97880.77;1699705;83;21704;-85
2021/08/23 01:09:17;;;;;;;6.62;5.12;;;;;;;15.26;78.50;97881.72;1724699;83;21016;-85
2021/08/23 01:11:55;;;;;;;10.18;5.97;;;;;;;15.28;78.97;97881.19;1699875;84;20977;-85
2021/08/23 01:14:21;;;;;;;7.45;5.35;;;;;;;15.33;78.32;97873.81;1726066;83;21414;-85
2021/08/23 01:16:48;;;;;;;8.00;5.60;;;;;;;15.32;78.12;97874.73;1699632;84;21060;-85
2021/08/23 01:19:18;;;;;;;8.95;5.08;;;;;;;15.28;78.06;97864.68;1724753;83;21020;-85
2021/08/23 01:21:49;;;;;;;8.03;6.00;;;;;;;15.24;78.35;97868.44;1701551;83;21017;-85
2021/08/23 01:24:16;;;;;;;7.17;6.00;;;;;;;15.24;77.86;97861.77;1691036;83;21411;-85
2021/08/23 01:26:47;;;;;;;7.85;5.90;;;;;;;15.22;77.60;97859.66;1683204;84;21004;-85
2021/08/23 01:29:43;;;;;;;6.97;5.65;;;;;;;15.22;77.47;97862.79;1701038;84;21027;-85
2021/08/23 01:32:23;;;;;;;9.10;6.20;;;;;;;15.16;77.73;97862.16;1677785;83;21087;-85
2021/08/23 01:34:53;;;;;;;7.87;5.42;;;;;;;15.13;77.50;97861.46;1721532;83;21001;-85
2021/08/23 01:37:21;;;;;;;8.55;5.90;;;;;;;15.09;77.31;97862.55;1707974;84;22154;-85
2021/08/23 01:39:48;;;;;;;6.72;5.62;;;;;;;15.02;77.24;97857.53;1721626;83;20969;-85
2021/08/23 01:42:16;;;;;;;8.10;5.72;;;;;;;14.97;77.16;97860.02;1726195;82;21018;-86
2021/08/23 01:44:43;;;;;;;10.82;6.03;;;;;;;14.91;77.40;97855.39;1733948;82;20976;-87
2021/08/23 01:47:10;;;;;;;8.90;5.78;;;;;;;14.86;77.78;97853.91;1721346;82;20996;-86
2021/08/23 01:49:37;;;;;;;8.33;6.12;;;;;;;14.81;78.23;97855.91;1701635;83;21052;-87
2021/08/23 01:52:09;;;;;;;7.97;5.83;;;;;;;14.75;77.87;97851.27;1712424;83;21060;-87
2021/08/23 01:54:36;;;;;;;9.05;6.42;;;;;;;14.71;77.98;97842.14;1712064;82;21434;-86
2021/08/23 01:57:03;;;;;;;8.40;6.05;;;;;;;14.63;78.13;97846.52;1722147;82;21490;-86
2021/08/23 01:59:30;;;;;;;8.30;6.08;;;;;;;14.59;78.29;97847.14;1721060;83;21529;-86
2021/08/23 02:01:56;;;;;;;7.53;5.70;;;;;;;14.54;78.31;97850.50;1722160;83;21044;-87
2021/08/23 02:04:22;;;;;;;7.37;6.03;;;;;;;14.49;78.53;97849.38;1721595;83;20921;-86
2021/08/23 02:06:49;;;;;;;8.58;6.05;;;;;;;14.52;79.36;97847.03;1709413;82;21436;-87
2021/08/23 02:09:16;;;;;;;7.85;6.03;;;;;;;14.52;78.83;97849.23;1722118;83;21505;-87
2021/08/23 02:11:42;;;;;;;8.85;6.58;;;;;;;14.52;79.85;97849.23;1709433;84;21019;-87
2021/08/23 02:14:13;;;;;;;8.55;5.92;;;;;;;14.51;79.83;97850.64;1678911;82;21032;-87
2021/08/23 02:16:42;;;;;;;7.28;5.85;;;;;;;14.47;79.69;97847.27;1707268;84;21088;-85
2021/08/23 02:19:09;;;;;;;8.80;6.40;;;;;;;14.46;80.14;97845.55;1728901;82;21012;-85
2021/08/23 02:21:55;;;;;;;7.45;5.95;;;;;;;14.44;79.84;97842.52;1725257;83;21060;-85
2021/08/23 02:24:22;;;;;;;7.00;5.45;;;;;;;14.42;80.41;97839.08;1695510;83;20977;-85
2021/08/23 02:26:51;;;;;;;7.58;5.80;;;;;;;14.45;79.58;97841.61;1720507;83;21072;-85
2021/08/23 02:29:18;;;;;;;8.18;5.50;;;;;;;14.43;79.79;97837.67;1707794;84;21510;-85
2021/08/23 02:31:45;;;;;;;6.83;5.67;;;;;;;14.46;79.85;97840.21;1724007;82;20976;-86
2021/08/23 02:34:11;;;;;;;7.62;5.72;;;;;;;14.48;80.10;97836.98;1692298;85;21100;-86
2021/08/23 02:36:38;;;;;;;7.78;5.78;;;;;;;14.48;80.09;97836.98;1696830;84;21024;-85
2021/08/23 02:39:05;;;;;;;6.65;5.25;;;;;;;14.52;80.34;97837.70;1725383;82;21056;-86
2021/08/23 02:41:32;;;;;;;6.70;5.35;;;;;;;14.55;80.30;97834.02;1700185;84;21027;-87
2021/08/23 02:43:59;;;;;;;9.78;6.42;;;;;;;14.55;81.01;97840.23;1724892;83;21426;-87
2021/08/23 02:46:25;;;;;;;8.15;5.97;;;;;;;14.52;81.12;97834.58;1700448;83;20976;-87
2021/08/23 02:48:52;;;;;;;7.00;5.40;;;;;;;14.55;80.94;97837.56;1701107;84;21009;-87
2021/08/23 02:51:20;;;;;;;9.03;6.15;;;;;;;14.58;81.51;97836.05;1701182;84;21027;-87
2021/08/23 02:53:46;;;;;;;9.73;5.42;;;;;;;14.61;80.59;97836.37;1700230;83;21020;-87
2021/08/23 02:56:13;;;;;;;8.45;5.65;;;;;;;14.62;80.28;97835.46;1726436;82;21406;-87
2021/08/23 02:58:40;;;;;;;8.48;6.20;;;;;;;14.60;80.77;97834.20;1686428;85;21052;-87
2021/08/23 03:01:06;;;;;;;8.03;5.85;;;;;;;14.64;80.28;97840.23;1701106;84;21000;-87
2021/08/23 03:03:35;;;;;;;7.55;5.58;;;;;;;14.59;79.93;97832.48;1676218;84;21024;-87
2021/08/23 03:06:02;;;;;;;9.15;5.83;;;;;;;14.52;79.90;97837.70;1673373;84;21040;-87
2021/08/23 03:08:29;;;;;;;9.28;6.50;;;;;;;14.50;81.31;97836.92;1645680;87;21040;-87
2021/08/23 03:11:09;;;;;;;7.25;6.12;;;;;;;14.48;80.22;97841.44;1663157;85;21031;-87
2021/08/23 03:13:36;;;;;;;9.78;6.65;;;;;;;14.42;82.14;97847.08;1671320;85;21362;-87
2021/08/23 03:16:03;;;;;;;9.35;6.50;;;;;;;14.40;80.09;97845.81;1699390;84;20997;-87
2021/08/23 03:18:30;;;;;;;8.50;6.12;;;;;;;14.34;81.42;97850.11;1701702;83;21028;-87
2021/08/23 03:20:57;;;;;;;11.45;6.00;;;;;;;14.29;80.25;97844.13;1701002;84;21021;-87
2021/08/23 03:23:25;;;;;;;7.50;6.28;;;;;;;14.23;79.79;97842.16;1700284;83;21009;-87
2021/08/23 03:25:52;;;;;;;8.95;6.10;;;;;;;14.16;79.79;97849.18;1700386;83;21052;-87
2021/08/23 03:28:18;;;;;;;9.65;6.30;;;;;;;14.06;79.97;97846.94;1700447;83;21018;-87
2021/08/23 03:30:45;;;;;;;9.88;6.78;;;;;;;14.04;80.31;97845.28;1700951;84;21067;-86
2021/08/23 03:33:13;;;;;;;9.55;6.33;;;;;;;14.01;80.25;97850.28;1697588;84;21427;-86
2021/08/23 03:35:40;;;;;;;11.28;7.10;;;;;;;13.97;79.86;97842.91;1693061;83;21028;-87
2021/08/23 03:38:07;;;;;;;9.83;6.92;;;;;;;13.91;79.93;97844.98;1693528;84;21445;-87
2021/08/23 03:40:33;;;;;;;9.43;6.75;;;;;;;13.85;80.09;97843.00;1693482;85;21028;-87
2021/08/23 03:43:00;;;;;;;11.30;7.12;;;;;;;13.80;80.45;97837.02;1692931;84;20989;-87
2021/08/23 03:45:27;;;;;;;10.53;6.83;;;;;;;13.76;80.63;97832.76;1692148;85;21001;-87
2021/08/23 03:47:53;;;;;;;9.53;6.92;;;;;;;13.75;80.20;97839.48;1693084;83;21004;-87
2021/08/23 03:50:20;;;;;;;9.15;7.10;;;;;;;13.68;80.30;97832.23;1693460;85;21095;-87
2021/08/23 03:52:46;;;;;;;12.30;6.90;;;;;;;13.66;80.48;97840.28;1693471;83;21036;-86
2021/08/23 03:55:13;;;;;;;9.08;6.92;;;;;;;13.66;80.35;97840.28;1692913;85;21008;-87
2021/08/23 03:57:39;;;;;;;11.95;7.60;;;;;;;13.67;80.42;97830.02;1693483;85;21048;-88
2021/08/23 04:00:09;;;;;;;14.13;7.10;;;;;;;13.68;80.55;97838.44;1703631;83;21405;-88
2021/08/23 04:02:36;;;;;;;11.53;7.72;;;;;;;13.67;81.03;97842.00;1704949;84;21445;-88
2021/08/23 04:05:04;;;;;;;11.97;7.03;;;;;;;13.70;81.07;97842.37;1690931;85;21405;-88
2021/08/23 04:07:30;;;;;;;9.68;6.72;;;;;;;13.72;81.27;97843.15;1689414;85;21471;-88
2021/08/23 04:09:57;;;;;;;10.72;7.65;;;;;;;13.75;81.14;97848.80;1691053;85;21002;-87
2021/08/23 04:12:23;;;;;;;12.73;7.40;;;;;;;13.79;80.62;97847.73;1682226;85;20989;-87
2021/08/23 04:14:51;;;;;;;12.23;6.65;;;;;;;13.81;81.21;97848.06;1655425;86;21071;-87
2021/08/23 04:17:18;;;;;;;13.45;7.22;;;;;;;13.85;81.67;97850.11;1701191;83;21040;-87
2021/08/23 04:19:44;;;;;;;8.48;6.72;;;;;;;13.88;80.84;97855.77;1691839;84;21111;-88
2021/08/23 04:22:11;;;;;;;8.58;6.60;;;;;;;13.92;81.10;97854.70;1692587;85;21052;-88
2021/08/23 04:24:40;;;;;;;10.45;6.53;;;;;;;13.99;81.85;97838.36;1711141;83;21011;-88
2021/08/23 04:27:06;;;;;;;12.63;6.53;;;;;;;14.05;82.47;97845.22;1695642;84;20982;-88
2021/08/23 04:29:33;;;;;;;8.80;6.00;;;;;;;14.08;82.54;97845.05;1691307;85;21432;-88
2021/08/23 04:32:00;;;;;;;7.28;6.17;;;;;;;14.13;82.32;97845.70;1694367;84;21035;-88
2021/08/23 04:34:26;;;;;;;13.13;6.35;;;;;;;14.21;82.11;97835.17;1721704;83;21504;-88
2021/08/23 04:36:53;;;;;;;9.78;6.62;;;;;;;14.28;81.71;97834.41;1704372;83;20988;-88
2021/08/23 04:39:19;;;;;;;8.18;5.58;;;;;;;14.34;81.73;97835.45;1692607;85;21032;-88
2021/08/23 04:41:46;;;;;;;9.95;6.12;;;;;;;14.42;81.92;97830.63;1695381;83;21430;-88
2021/08/23 04:44:12;;;;;;;10.63;7.33;;;;;;;14.48;81.51;97828.11;1694443;83;20985;-88
2021/08/23 04:46:39;;;;;;;10.13;6.25;;;;;;;14.54;82.16;97829.63;1645033;87;21017;-88
2021/08/23 04:49:05;;;;;;;9.20;6.42;;;;;;;14.61;81.55;97823.92;1690701;85;21060;-88
2021/08/23 04:51:32;;;;;;;8.03;6.47;;;;;;;14.66;81.46;97829.05;1673970;86;21447;-88
2021/08/23 04:53:58;;;;;;;13.28;7.50;;;;;;;14.72;81.33;97822.52;1691190;83;21018;-88
2021/08/23 04:56:24;;;;;;;9.98;6.62;;;;;;;14.75;80.94;97819.72;1666961;86;21097;-88
2021/08/23 04:58:52;;;;;;;9.55;6.97;;;;;;;14.77;80.76;97819.19;1691757;85;21401;-88
2021/08/23 05:01:18;;;;;;;10.05;7.28;;;;;;;14.81;80.48;97821.22;1692316;83;21415;-86
2021/08/23 05:03:45;;;;;;;11.75;7.28;;;;;;;14.83;80.37;97826.03;1696992;83;21015;-86
2021/08/23 05:06:11;;;;;;;9.63;7.08;;;;;;;14.86;80.16;97829.41;1669716;85;21042;-86
2021/08/23 05:08:38;;;;;;;12.65;7.17;;;;;;;14.86;80.35;97824.56;1691359;84;21392;-87
2021/08/23 05:11:06;;;;;;;13.05;7.70;;;;;;;14.85;80.16;97823.69;1699847;83;21019;-87
2021/08/23 05:13:33;;;;;;;8.13;7.15;;;;;;;14.88;80.22;97824.88;1721156;83;20956;-86
2021/08/23 05:15:59;;;;;;;11.65;7.80;;;;;;;14.94;79.99;97829.51;1718683;83;20991;-86
2021/08/23 05:18:25;;;;;;;14.70;8.68;;;;;;;14.94;79.64;97817.50;1690427;85;21559;-86
2021/08/23 05:20:54;;;;;;;13.22;8.05;;;;;;;14.96;79.81;97827.61;1695756;83;20936;-86
2021/08/23 05:23:21;;;;;;;11.03;7.80;;;;;;;14.98;80.17;97817.71;1721576;83;21429;-86
2021/08/23 05:25:47;;;;;;;10.90;8.25;;;;;;;15.00;79.74;97817.19;1703101;83;21029;-87
2021/08/23 05:28:13;;;;;;;15.72;9.13;;;;;;;15.05;79.81;97827.16;1701534;83;21035;-86
2021/08/23 05:30:40;;;;;;;17.60;9.90;;;;;;;15.09;79.49;97827.40;1714071;83;21106;-86
2021/08/23 05:33:06;;;;;;;11.55;9.03;;;;;;;15.13;80.01;97825.42;1691398;84;21048;-86
2021/08/23 05:35:33;;;;;;;12.37;7.92;;;;;;;15.17;79.49;97831.00;1692808;85;21000;-86
2021/08/23 05:37:59;;;;;;;12.03;8.45;;;;;;;15.20;80.36;97827.31;1693815;83;21482;-86
2021/08/23 05:40:30;;;;;;;13.83;9.23;;;;;;;15.26;79.47;97826.99;1693853;83;21432;-86
2021/08/23 05:42:55;;;;;;;14.15;8.73;;;;;;;15.27;79.87;97826.92;1676613;86;21056;-86
2021/08/23 05:45:22;;;;;;;16.48;10.20;;;;;;;15.35;80.86;97827.86;1676797;85;21017;-86
2021/08/23 05:47:48;;;;;;;14.50;9.60;;;;;;;15.40;79.51;97831.64;1675981;85;20985;-86
2021/08/23 05:50:14;;;;;;;13.20;10.03;;;;;;;15.47;79.50;97826.81;1698444;83;21056;-86
2021/08/23 05:52:41;;;;;;;14.45;8.70;;;;;;;15.53;79.67;97825.18;1687436;83;20957;-87
2021/08/23 05:55:08;;;;;;;14.25;10.15;;;;;;;15.58;79.51;97823.97;1676992;86;21006;-87
2021/08/23 05:57:35;;;;;;;14.43;9.73;;;;;;;15.65;79.63;97825.84;1672288;85;21027;-87
2021/08/23 06:00:01;;;;;;;14.85;10.48;;;;;;;15.74;79.50;97823.64;1674421;85;21038;-87
2021/08/23 06:02:30;;;;;;;13.75;10.10;;;;;;;15.80;79.13;97822.84;1674959;86;21002;-88
2021/08/23 06:04:56;;;;;;;14.43;9.53;;;;;;;15.89;79.02;97824.61;1696565;85;21108;-88
2021/08/23 06:07:23;;;;;;;15.75;11.57;;;;;;;15.97;79.24;97818.41;1695670;85;21004;-88
2021/08/23 06:09:49;;;;;;;15.72;10.45;;;;;;;16.05;78.70;97824.67;1694902;84;21036;-88
2021/08/23 06:12:18;;;;;;;14.47;10.65;;;;;;;16.15;78.51;97817.03;1697332;83;21454;-88
2021/08/23 06:14:45;;;;;;;16.70;10.85;;;;;;;16.24;78.36;97811.17;1696543;85;21024;-88
2021/08/23 06:17:11;;;;;;;20.27;13.20;;;;;;;16.34;78.44;97814.17;1685342;85;20979;-88
2021/08/23 06:19:38;;;;;;;21.70;13.85;;;;;;;16.43;78.47;97808.31;1691100;85;21463;-88
2021/08/23 06:22:04;;;;;;;18.07;12.88;;;;;;;16.56;78.15;97811.14;1689957;84;21321;-88
2021/08/23 06:24:31;;;;;;;16.77;11.00;;;;;;;16.71;78.02;97819.25;1695644;85;20996;-88
2021/08/23 06:26:57;;;;;;;19.82;11.68;;;;;;;16.81;77.83;97819.09;1696191;85;21001;-88
2021/08/23 06:29:24;;;;;;;16.93;11.45;;;;;;;16.93;77.55;97820.69;1704402;83;21024;-87
2021/08/23 06:31:50;;;;;;;20.85;11.60;;;;;;;17.04;77.40;97810.70;1703306;83;21072;-87
2021/08/23 06:34:17;;;;;;;21.50;12.28;;;;;;;17.13;77.09;97816.39;1717185;82;21047;-87
2021/08/23 06:36:45;;;;;;;30.30;16.70;;;;;;;17.24;76.85;97817.56;1707563;83;20987;-87
2021/08/23 06:39:12;;;;;;;40.28;22.30;;;;;;;17.35;76.50;97805.72;1739973;82;20972;-87
2021/08/23 06:41:39;;;;;;;32.13;18.05;;;;;;;17.48;76.06;97807.16;1742022;81;21534;-87
2021/08/23 06:44:05;;;;;;;22.85;13.18;;;;;;;17.61;75.90;97812.63;1721269;82;20988;-87
2021/08/23 06:46:32;;;;;;;25.05;14.07;;;;;;;17.75;75.89;97813.61;1735927;82;20996;-87
2021/08/23 06:49:00;;;;;;;23.10;14.78;;;;;;;17.88;75.61;97805.19;1723130;83;21398;-87
2021/08/23 06:51:27;;;;;;;26.12;14.20;;;;;;;18.01;75.32;97810.64;1723544;83;21455;-87
2021/08/23 06:53:53;;;;;;;19.23;13.15;;;;;;;18.14;75.10;97805.38;1730927;82;20993;-87
2021/08/23 06:56:21;;;;;;;21.12;11.55;;;;;;;18.28;74.91;97807.67;1722236;83;21087;-87
2021/08/23 06:58:48;;;;;;;22.15;11.20;;;;;;;18.39;74.35;97803.80;1722204;83;21466;-85
2021/08/23 07:01:15;;;;;;;17.23;10.35;;;;;;;18.54;73.62;97801.08;1722246;83;21127;-87
2021/08/23 07:03:42;;;;;;;17.23;10.72;;;;;;;18.68;74.14;97795.67;1707894;84;20982;-87
2021/08/23 07:06:09;;;;;;;19.02;10.58;;;;;;;18.81;73.74;97793.02;1706456;84;20987;-88
2021/08/23 07:08:35;;;;;;;19.35;10.18;;;;;;;18.91;73.53;97790.60;1719617;82;21461;-87
2021/08/23 07:11:02;;;;;;;16.27;10.40;;;;;;;19.02;73.24;97788.54;1709813;81;20970;-87
2021/08/23 07:13:29;;;;;;;15.05;10.00;;;;;;;19.12;73.08;97785.64;1691790;84;21135;-86
2021/08/23 07:15:57;;;;;;;15.63;10.05;;;;;;;19.23;72.01;97787.56;1694651;84;21023;-88
2021/08/23 07:18:23;;;;;;;16.25;9.70;;;;;;;19.32;71.39;97778.03;1730915;82;21044;-90
2021/08/23 07:20:53;;;;;;;17.12;8.88;;;;;;;19.38;71.53;97787.00;1733666;82;21406;-88
2021/08/23 07:23:18;;;;;;;16.62;9.73;;;;;;;19.45;71.39;97779.38;1726852;82;21084;-87
2021/08/23 07:25:45;;;;;;;18.65;10.25;;;;;;;19.53;71.37;97782.37;1703808;82;21098;-84
2021/08/23 07:28:13;;;;;;;15.05;9.88;;;;;;;19.62;71.14;97776.86;1696275;84;21024;-87
2021/08/23 07:30:41;;;;;;;13.85;9.80;;;;;;;19.70;71.07;97780.34;1692924;84;21341;-81
2021/08/23 07:33:08;;;;;;;14.85;9.38;;;;;;;19.77;70.87;97772.70;1735460;82;21012;-79
2021/08/23 07:35:34;;;;;;;11.68;9.68;;;;;;;19.85;70.67;97768.13;1731177;81;20989;-81
2021/08/23 07:38:03;;;;;;;16.10;9.60;;;;;;;19.94;70.55;97759.87;1725128;81;21039;-80
2021/08/23 07:40:31;;;;;;;14.87;9.85;;;;;;;20.03;69.86;97757.90;1732302;82;21501;-81
2021/08/23 07:42:58;;;;;;;12.85;9.38;;;;;;;20.13;70.10;97760.29;1699849;83;21067;-80
2021/08/23 07:45:25;;;;;;;15.85;11.35;;;;;;;20.22;70.08;97757.91;1740301;82;20956;-79
2021/08/23 07:47:52;;;;;;;14.95;11.15;;;;;;;20.29;69.87;97753.31;1714653;83;20987;-80
2021/08/23 07:50:19;;;;;;;16.75;11.80;;;;;;;20.37;69.73;97746.48;1718268;83;21026;-80
2021/08/23 07:52:46;;;;;;;17.80;10.18;;;;;;;20.46;69.53;97743.63;1702396;83;21532;-81
2021/08/23 07:55:13;;;;;;;13.13;9.20;;;;;;;20.56;69.57;97740.11;1739924;82;21015;-82
2021/08/23 07:57:43;;;;;;;17.87;10.03;;;;;;;20.66;69.49;97732.69;1726127;80;21004;-83
2021/08/23 08:00:12;;;;;;;13.60;8.95;;;;;;;20.76;69.17;97736.39;1716419;82;20992;-82
2021/08/23 08:02:41;;;;;;;11.78;8.95;;;;;;;20.87;69.04;97730.70;1721679;82;21048;-83
2021/08/23 08:05:09;;;;;;;11.85;8.90;;;;;;;20.94;68.72;97720.72;1718250;83;21473;-84
2021/08/23 08:07:37;;;;;;;10.98;8.18;;;;;;;21.05;68.35;97721.73;1720161;83;21387;-86
2021/08/23 08:10:06;;;;;;;13.25;8.73;;;;;;;21.15;68.37;97720.52;1721494;82;21095;-87
2021/08/23 08:12:33;;;;;;;11.45;7.83;;;;;;;21.26;68.03;97716.98;1721615;82;21458;-86
2021/08/23 08:15:00;;;;;;;9.78;8.18;;;;;;;21.35;67.42;97721.16;1725715;82;21596;-86
2021/08/23 08:17:27;;;;;;;12.10;7.75;;;;;;;21.47;67.67;97722.53;1728635;82;21051;-86
2021/08/23 08:19:54;;;;;;;9.78;7.72;;;;;;;21.57;67.27;97718.59;1740501;82;20968;-87
2021/08/23 08:22:21;;;;;;;10.75;7.70;;;;;;;21.68;67.20;97715.92;1739748;82;21015;-86
2021/08/23 08:24:48;;;;;;;12.68;8.15;;;;;;;;;;1720571;82;20953;-86
2021/08/23 08:27:14;;;;;;;15.03;8.63;;;;;;;21.86;66.65;97715.44;1725998;82;21075;-86
2021/08/23 08:29:41;;;;;;;14.93;8.38;;;;;;;21.96;66.71;97715.57;1720015;80;21481;-86
2021/08/23 08:32:09;;;;;;;13.43;8.70;;;;;;;22.06;66.29;97708.92;1725348;82;21401;-86
2021/08/23 08:34:36;;;;;;;16.10;7.50;;;;;;;22.18;66.23;97707.92;1719400;82;21028;-89
2021/08/23 08:37:04;;;;;;;13.62;8.10;;;;;;;22.27;65.76;97706.30;1718742;82;20974;-88
2021/08/23 08:39:30;;;;;;;13.62;8.25;;;;;;;22.39;65.42;97710.66;1719585;83;21007;-88
2021/08/23 08:41:58;;;;;;;10.20;7.80;;;;;;;22.51;64.74;97707.95;1720253;82;21071;-88
2021/08/23 08:44:28;;;;;;;13.85;10.90;;;;;;;22.63;65.26;97704.75;1719309;83;21158;-88
2021/08/23 08:46:57;;;;;;;18.07;12.45;;;;;;;22.73;64.86;97706.16;1687035;84;21000;-89
2021/08/23 08:49:23;;;;;;;15.30;11.50;;;;;;;22.84;64.76;97702.56;1725361;83;20953;-89
2021/08/23 08:51:51;;;;;;;11.38;9.33;;;;;;;22.93;64.42;97705.83;1702915;83;21071;-87
2021/08/23 08:54:18;;;;;;;10.80;8.75;;;;;;;23.02;64.00;97695.59;1720953;83;21457;-89
2021/08/23 08:56:45;;;;;;;10.68;7.83;;;;;;;23.12;63.04;97696.15;1696362;84;21023;-87
2021/08/23 08:59:12;;;;;;;10.63;8.13;;;;;;;23.21;63.32;97692.66;1730693;82;20952;-86
2021/08/23 09:01:39;;;;;;;9.48;8.35;;;;;;;23.32;63.09;97691.69;1704747;83;20983;-88
2021/08/23 09:04:06;;;;;;;11.50;7.65;;;;;;;23.43;62.80;97685.39;1735420;82;20968;-85
2021/08/23 09:06:43;;;;;;;10.20;8.13;;;;;;;23.53;62.54;97683.58;1699381;83;21023;-86
2021/08/23 09:09:12;;;;;;;10.88;7.83;;;;;;;23.70;61.21;97674.45;1699762;84;21039;-87
2021/08/23 09:11:42;;;;;;;16.85;7.90;;;;;;;23.70;61.21;97674.45;1702099;83;21007;-87
2021/08/23 09:14:10;;;;;;;11.22;7.50;;;;;;;23.79;60.90;97671.44;1719623;83;21692;-88
2021/08/23 09:16:40;;;;;;;10.40;7.83;;;;;;;23.89;61.36;97667.39;1698243;83;20991;-88
2021/08/23 09:19:08;;;;;;;12.33;7.85;;;;;;;24.00;61.07;97669.49;1692626;84;21040;-88
2021/08/23 09:21:40;;;;;;;9.90;7.75;;;;;;;24.11;61.00;97667.20;1721534;83;21455;-88
2021/08/23 09:24:19;;;;;;;10.35;7.40;;;;;;;24.24;60.69;97665.58;1714379;83;21480;-87
2021/08/23 09:26:45;;;;;;;13.03;7.47;;;;;;;24.36;58.38;97664.95;1730296;82;21023;-89
2021/08/23 09:29:12;;;;;;;8.88;7.60;;;;;;;24.48;58.16;97656.68;1718716;83;20974;-87
2021/08/23 09:31:40;;;;;;;17.85;14.05;;;;;;;24.62;58.76;97658.12;1723148;82;20965;-86
2021/08/23 09:34:11;;;;;;;10.78;9.10;;;;;;;24.74;57.89;97652.89;1719709;83;21079;-83
2021/08/23 09:36:40;;;;;;;9.75;7.67;;;;;;;24.88;57.25;97658.39;1721150;82;21012;-84
2021/08/23 09:39:18;;;;;;;12.05;7.97;;;;;;;25.02;57.62;97657.11;1721901;82;21063;-84
2021/08/23 09:41:44;;;;;;;10.48;7.90;;;;;;;25.13;56.56;97658.80;1719694;83;21032;-84
2021/08/23 09:44:14;;;;;;;9.50;7.40;;;;;;;25.25;56.01;97651.84;1719505;83;21035;-83
2021/08/23 09:46:43;;;;;;;11.28;7.62;;;;;;;25.36;55.65;97648.10;1725646;82;20992;-87
2021/08/23 09:49:13;;;;;;;9.75;7.45;;;;;;;25.46;55.80;97649.41;1706427;83;21808;-85
2021/08/23 09:51:43;;;;;;;7.80;7.00;;;;;;;25.57;54.38;97643.81;1718892;82;20964;-85
2021/08/23 09:54:18;;;;;;;9.08;7.33;;;;;;;25.69;54.82;97649.89;1719896;83;21505;-85
2021/08/23 09:56:49;;;;;;;9.78;6.72;;;;;;;25.84;54.11;97639.41;1722230;82;20972;-86
2021/08/23 09:59:24;;;;;;;9.58;7.12;;;;;;;25.99;53.71;97637.53;1714981;82;21016;-85
2021/08/23 10:01:55;;;;;;;11.43;6.67;;;;;;;26.09;52.55;97635.61;1721212;82;21149;-85
2021/08/23 10:04:23;;;;;;;9.95;6.78;;;;;;;26.22;52.32;97629.80;1698440;84;21071;-82
2021/08/23 10:06:51;;;;;;;8.18;7.22;;;;;;;26.33;52.34;97626.88;1731157;82;21023;-82
2021/08/23 10:09:23;;;;;;;8.55;6.58;;;;;;;26.48;50.89;97630.40;1698465;83;21055;-83
2021/08/23 10:11:52;;;;;;;8.05;7.22;;;;;;;26.62;51.50;97624.94;1726572;82;21015;-82
2021/08/23 10:14:19;;;;;;;10.75;6.97;;;;;;;26.75;51.58;97629.44;1729693;82;21441;-83
2021/08/23 10:16:47;;;;;;;7.33;6.62;;;;;;;26.91;50.85;97621.08;1686329;84;21030;-86
2021/08/23 10:19:17;;;;;;;7.70;6.45;;;;;;;27.13;49.43;97625.17;1699101;83;20999;-85
2021/08/23 10:21:50;;;;;;;11.18;7.30;;;;;;;27.36;50.11;97629.20;1720323;83;21024;-85
2021/08/23 10:24:23;;;;;;;;;;;;;;;27.56;49.58;97624.35;1700281;84;21034;-85
2021/08/23 10:26:50;;;;;;;8.95;7.42;;;;;;;27.72;49.21;97623.61;1708953;83;20205;-84
2021/08/23 10:29:17;;;;;;;24.20;20.70;;;;;;;27.76;48.41;97617.31;1712610;81;21063;-84
2021/08/23 10:31:46;;;;;;;11.75;8.05;;;;;;;27.74;48.49;97607.95;1660708;84;21064;-84
2021/08/23 10:34:21;;;;;;;10.13;6.67;;;;;;;27.73;47.65;97615.78;1719740;83;21536;-84
2021/08/23 10:36:51;;;;;;;8.70;6.60;;;;;;;27.85;48.37;97620.95;1706307;84;21031;-85
2021/08/23 10:39:26;;;;;;;7.22;6.53;;;;;;;28.01;47.63;97614.17;1719737;82;21440;-84
2021/08/23 10:41:56;;;;;;;8.20;6.70;;;;;;;28.18;47.39;97615.55;1736250;82;21432;-83
2021/08/23 10:44:32;;;;;;;9.88;6.80;;;;;;;28.40;46.41;97608.63;1706229;83;21047;-83
2021/08/23 10:47:14;;;;;;;9.60;6.78;;;;;;;28.84;46.70;97611.54;1744310;81;21038;-83
2021/08/23 10:49:47;;;;;;;14.87;11.05;;;;;;;28.94;45.90;97609.17;1738402;81;21504;-84
2021/08/23 10:52:17;;;;;;;21.77;10.70;;;;;;;29.27;46.22;97603.66;1741773;81;21050;-84
2021/08/23 10:54:49;;;;;;;10.13;7.30;;;;;;;29.96;44.56;97598.09;1706987;84;21016;-83
2021/08/23 10:57:22;;;;;;;9.40;7.12;;;;;;;30.46;43.33;97590.94;1739860;81;21034;-82
2021/08/23 10:59:52;;;;;;;10.45;7.05;;;;;;;31.30;41.85;97582.33;1744289;81;20979;-82
2021/08/23 11:02:32;;;;;;;11.12;7.00;;;;;;;30.86;40.74;97575.77;1695025;83;21035;-82
2021/08/23 11:05:06;;;;;;;9.98;7.10;;;;;;;30.56;40.56;97579.23;1733930;82;21517;-83
2021/08/23 11:07:34;;;;;;;9.40;6.55;;;;;;;31.25;40.07;97573.80;1736586;81;21020;-82
2021/08/23 11:10:23;;;;;;;10.90;7.80;;;;;;;30.87;39.53;97569.25;1708331;82;21071;-82
2021/08/23 11:12:57;;;;;;;8.03;7.10;;;;;;;31.25;40.35;97568.86;1709031;81;21047;-82
2021/08/23 11:15:30;;;;;;;8.25;6.42;;;;;;;32.53;39.13;97563.02;1706840;84;21015;-82
2021/08/23 11:18:10;;;;;;;7.72;6.60;;;;;;;33.33;35.46;97558.31;1706837;84;20968;-82
2021/08/23 11:20:41;;;;;;;9.28;7.42;;;;;;;33.95;34.74;97561.14;1713620;82;20986;-83
2021/08/23 11:23:12;;;;;;;8.00;6.35;;;;;;;34.75;34.29;97549.95;1724418;82;20975;-82
2021/08/23 11:25:54;;;;;;;6.80;6.20;;;;;;;35.42;32.85;97546.80;1725205;82;21374;-83
2021/08/23 11:28:27;;;;;;;7.00;6.35;;;;;;;36.02;30.84;97540.70;1708106;82;21035;-84
2021/08/23 11:30:55;;;;;;;9.50;6.58;;;;;;;36.41;30.12;97544.83;1715820;82;21564;-83
2021/08/23 11:33:34;;;;;;;8.93;6.12;;;;;;;37.01;30.32;97537.09;1707974;84;21500;-82
2021/08/23 11:36:25;;;;;;;8.15;6.40;;;;;;;37.40;27.58;97543.28;1709706;82;21485;-82